sensor_id;sensor_type;location;lat;lon;timestamp;pressure;altitude;pressure_sealevel;temperature;humidity
80405;BME280;69733;48.744;9.176;2023-07-02T00:00:06;96198.25;;;16.90;70.92
80405;BME280;69733;48.744;9.176;2023-07-02T00:02:32;96198.81;;;16.87;71.04
80405;BME280;69733;48.744;9.176;2023-07-02T00:04:57;96196.97;;;16.83;71.08
80405;BME280;69733;48.744;9.176;2023-07-02T00:07:22;96205.31;;;16.81;71.16
80405;BME280;69733;48.744;9.176;2023-07-02T00:09:48;96194.00;;;16.84;71.26
80405;BME280;69733;48.744;9.176;2023-07-02T00:12:13;96199.38;;;16.84;71.13
80405;BME280;69733;48.744;9.176;2023-07-02T00:14:39;96193.19;;;16.84;71.47
80405;BME280;69733;48.744;9.176;2023-07-02T00:17:04;96190.28;;;16.80;71.63
80405;BME280;69733;48.744;9.176;2023-07-02T00:19:30;96202.16;;;16.74;71.26
80405;BME280;69733;48.744;9.176;2023-07-02T00:21:55;96199.00;;;16.67;71.52
80405;BME280;69733;48.744;9.176;2023-07-02T00:24:21;96207.94;;;16.58;71.72
80405;BME280;69733;48.744;9.176;2023-07-02T00:26:46;96204.75;;;16.51;72.02
80405;BME280;69733;48.744;9.176;2023-07-02T00:29:11;96202.34;;;16.44;72.02
80405;BME280;69733;48.744;9.176;2023-07-02T00:31:37;96203.47;;;16.38;72.04
80405;BME280;69733;48.744;9.176;2023-07-02T00:34:03;96203.25;;;16.34;72.06
80405;BME280;69733;48.744;9.176;2023-07-02T00:36:29;96201.91;;;16.32;71.85
80405;BME280;69733;48.744;9.176;2023-07-02T00:38:55;96207.56;;;16.30;71.81
80405;BME280;69733;48.744;9.176;2023-07-02T00:41:24;96199.25;;;16.27;72.06
80405;BME280;69733;48.744;9.176;2023-07-02T00:43:49;96195.00;;;16.26;72.13
80405;BME280;69733;48.744;9.176;2023-07-02T00:46:17;96198.44;;;16.26;72.01
80405;BME280;69733;48.744;9.176;2023-07-02T00:48:47;96200.06;;;16.27;72.10
80405;BME280;69733;48.744;9.176;2023-07-02T00:51:18;96199.00;;;16.28;71.89
80405;BME280;69733;48.744;9.176;2023-07-02T00:53:44;96207.84;;;16.29;71.88
80405;BME280;69733;48.744;9.176;2023-07-02T00:56:10;96205.16;;;16.29;71.71
80405;BME280;69733;48.744;9.176;2023-07-02T00:58:39;96204.63;;;16.27;71.99
80405;BME280;69733;48.744;9.176;2023-07-02T01:01:05;96206.00;;;16.24;72.18
80405;BME280;69733;48.744;9.176;2023-07-02T01:03:30;96211.38;;;16.24;72.49
80405;BME280;69733;48.744;9.176;2023-07-02T01:05:58;96214.84;;;16.25;72.12
80405;BME280;69733;48.744;9.176;2023-07-02T01:08:23;96206.00;;;16.24;72.31
80405;BME280;69733;48.744;9.176;2023-07-02T01:10:55;96214.06;;;16.24;72.14
80405;BME280;69733;48.744;9.176;2023-07-02T01:13:22;96209.19;;;16.26;72.38
80405;BME280;69733;48.744;9.176;2023-07-02T01:15:49;96212.94;;;16.30;72.17
80405;BME280;69733;48.744;9.176;2023-07-02T01:18:15;96208.59;;;16.34;72.31
80405;BME280;69733;48.744;9.176;2023-07-02T01:20:42;96212.34;;;16.38;72.18
80405;BME280;69733;48.744;9.176;2023-07-02T01:23:11;96220.41;;;16.38;72.25
80405;BME280;69733;48.744;9.176;2023-07-02T01:25:39;96222.84;;;16.35;72.39
80405;BME280;69733;48.744;9.176;2023-07-02T01:28:05;96226.09;;;16.32;72.53
80405;BME280;69733;48.744;9.176;2023-07-02T01:30:33;96236.84;;;16.27;72.59
80405;BME280;69733;48.744;9.176;2023-07-02T01:33:01;96231.78;;;16.20;72.66
80405;BME280;69733;48.744;9.176;2023-07-02T01:35:29;96227.53;;;16.14;72.88
80405;BME280;69733;48.744;9.176;2023-07-02T01:37:55;96226.75;;;16.09;73.21
80405;BME280;69733;48.744;9.176;2023-07-02T01:40:20;96222.22;;;16.04;72.81
80405;BME280;69733;48.744;9.176;2023-07-02T01:42:51;96203.47;;;15.99;73.22
80405;BME280;69733;48.744;9.176;2023-07-02T01:45:17;96202.94;;;15.97;73.12
80405;BME280;69733;48.744;9.176;2023-07-02T01:47:42;96201.59;;;15.94;73.02
80405;BME280;69733;48.744;9.176;2023-07-02T01:50:08;96200.00;;;15.93;73.10
80405;BME280;69733;48.744;9.176;2023-07-02T01:52:33;96202.69;;;15.93;72.76
80405;BME280;69733;48.744;9.176;2023-07-02T01:55:00;96203.50;;;15.94;72.98
80405;BME280;69733;48.744;9.176;2023-07-02T01:57:25;96213.13;;;15.95;73.13
80405;BME280;69733;48.744;9.176;2023-07-02T01:59:51;96216.91;;;15.94;72.88
80405;BME280;69733;48.744;9.176;2023-07-02T02:02:16;96224.97;;;15.94;72.79
80405;BME280;69733;48.744;9.176;2023-07-02T02:04:41;96224.97;;;15.94;73.07
80405;BME280;69733;48.744;9.176;2023-07-02T02:07:07;96230.34;;;15.94;72.89
80405;BME280;69733;48.744;9.176;2023-07-02T02:09:35;96225.47;;;15.96;72.90
80405;BME280;69733;48.744;9.176;2023-07-02T02:12:00;96223.31;;;15.98;72.87
80405;BME280;69733;48.744;9.176;2023-07-02T02:14:26;96231.91;;;16.00;72.93
80405;BME280;69733;48.744;9.176;2023-07-02T02:16:51;96228.16;;;16.01;72.67
80405;BME280;69733;48.744;9.176;2023-07-02T02:19:16;96229.75;;;16.02;73.10
80405;BME280;69733;48.744;9.176;2023-07-02T02:21:42;96232.97;;;16.04;72.90
80405;BME280;69733;48.744;9.176;2023-07-02T02:24:07;96228.09;;;16.06;73.05
80405;BME280;69733;48.744;9.176;2023-07-02T02:26:34;96228.66;;;16.08;72.93
80405;BME280;69733;48.744;9.176;2023-07-02T02:28:59;96223.81;;;16.10;73.07
80405;BME280;69733;48.744;9.176;2023-07-02T02:31:24;96220.03;;;16.11;73.10
80405;BME280;69733;48.744;9.176;2023-07-02T02:33:50;96222.16;;;16.14;72.96
80405;BME280;69733;48.744;9.176;2023-07-02T02:36:15;96207.69;;;16.15;73.01
80405;BME280;69733;48.744;9.176;2023-07-02T02:38:42;96223.50;;;16.17;73.05
80405;BME280;69733;48.744;9.176;2023-07-02T02:41:07;96220.81;;;16.17;73.06
80405;BME280;69733;48.744;9.176;2023-07-02T02:43:36;96224.56;;;16.16;73.37
80405;BME280;69733;48.744;9.176;2023-07-02T02:46:02;96226.97;;;16.17;73.16
80405;BME280;69733;48.744;9.176;2023-07-02T02:48:27;96220.53;;;16.18;73.01
80405;BME280;69733;48.744;9.176;2023-07-02T02:50:52;96214.88;;;16.20;72.93
80405;BME280;69733;48.744;9.176;2023-07-02T02:53:18;96214.31;;;16.23;73.00
80405;BME280;69733;48.744;9.176;2023-07-02T02:55:43;96218.09;;;16.22;73.29
80405;BME280;69733;48.744;9.176;2023-07-02T02:58:08;96222.38;;;16.23;73.31
80405;BME280;69733;48.744;9.176;2023-07-02T03:00:33;96223.19;;;16.23;73.30
80405;BME280;69733;48.744;9.176;2023-07-02T03:02:59;96220.22;;;16.25;73.12
80405;BME280;69733;48.744;9.176;2023-07-02T03:05:24;96229.09;;;16.25;73.13
80405;BME280;69733;48.744;9.176;2023-07-02T03:07:52;96239.03;;;16.25;73.49
80405;BME280;69733;48.744;9.176;2023-07-02T03:10:18;96240.91;;;16.24;73.45
80405;BME280;69733;48.744;9.176;2023-07-02T03:12:47;96243.59;;;16.24;73.62
80405;BME280;69733;48.744;9.176;2023-07-02T03:15:15;96248.16;;;16.24;73.79
80405;BME280;69733;48.744;9.176;2023-07-02T03:17:42;96250.06;;;16.18;73.45
80405;BME280;69733;48.744;9.176;2023-07-02T03:20:30;96256.78;;;16.16;73.86
80405;BME280;69733;48.744;9.176;2023-07-02T03:22:56;96260.81;;;16.13;74.10
80405;BME280;69733;48.744;9.176;2023-07-02T03:25:21;96264.06;;;16.10;74.03
80405;BME280;69733;48.744;9.176;2023-07-02T03:27:46;96257.94;;;16.05;74.29
80405;BME280;69733;48.744;9.176;2023-07-02T03:30:12;96269.47;;;16.00;74.49
80405;BME280;69733;48.744;9.176;2023-07-02T03:32:37;96273.22;;;15.99;74.44
80405;BME280;69733;48.744;9.176;2023-07-02T03:35:02;96276.22;;;15.92;74.55
80405;BME280;69733;48.744;9.176;2023-07-02T03:37:28;96278.38;;;15.90;74.60
80405;BME280;69733;48.744;9.176;2023-07-02T03:39:53;96279.72;;;15.88;74.85
80405;BME280;69733;48.744;9.176;2023-07-02T03:42:18;96288.06;;;15.86;74.88
80405;BME280;69733;48.744;9.176;2023-07-02T03:44:44;96291.00;;;15.85;74.67
80405;BME280;69733;48.744;9.176;2023-07-02T03:47:09;96279.75;;;15.78;75.18
80405;BME280;69733;48.744;9.176;2023-07-02T03:49:34;96285.69;;;15.75;75.35
80405;BME280;69733;48.744;9.176;2023-07-02T03:51:59;96290.78;;;15.71;75.27
80405;BME280;69733;48.744;9.176;2023-07-02T03:54:25;96283.53;;;15.67;75.42
80405;BME280;69733;48.744;9.176;2023-07-02T03:56:50;96291.63;;;15.62;75.52
80405;BME280;69733;48.744;9.176;2023-07-02T03:59:15;96300.22;;;15.59;75.74
80405;BME280;69733;48.744;9.176;2023-07-02T04:01:41;96307.97;;;15.60;75.46
80405;BME280;69733;48.744;9.176;2023-07-02T04:04:06;96303.69;;;15.59;75.54
80405;BME280;69733;48.744;9.176;2023-07-02T04:06:32;96299.13;;;15.60;75.64
80405;BME280;69733;48.744;9.176;2023-07-02T04:09:05;96303.69;;;15.54;75.92
80405;BME280;69733;48.744;9.176;2023-07-02T04:11:30;96313.38;;;15.50;75.99
80405;BME280;69733;48.744;9.176;2023-07-02T04:13:55;96319.53;;;15.51;75.97
80405;BME280;69733;48.744;9.176;2023-07-02T04:16:21;96315.47;;;15.48;75.83
80405;BME280;69733;48.744;9.176;2023-07-02T04:18:46;96320.81;;;15.48;75.80
80405;BME280;69733;48.744;9.176;2023-07-02T04:21:11;96317.38;;;15.48;75.90
80405;BME280;69733;48.744;9.176;2023-07-02T04:23:37;96323.53;;;15.43;76.20
80405;BME280;69733;48.744;9.176;2023-07-02T04:26:02;96315.19;;;15.44;76.09
80405;BME280;69733;48.744;9.176;2023-07-02T04:28:27;96322.19;;;15.45;76.03
80405;BME280;69733;48.744;9.176;2023-07-02T04:30:53;96323.78;;;15.47;76.18
80405;BME280;69733;48.744;9.176;2023-07-02T04:33:18;96318.97;;;15.49;75.94
80405;BME280;69733;48.744;9.176;2023-07-02T04:35:43;96322.22;;;15.51;75.86
80405;BME280;69733;48.744;9.176;2023-07-02T04:38:09;96321.41;;;15.55;75.79
80405;BME280;69733;48.744;9.176;2023-07-02T04:40:34;96329.97;;;15.62;75.63
80405;BME280;69733;48.744;9.176;2023-07-02T04:42:59;96324.88;;;15.66;75.49
80405;BME280;69733;48.744;9.176;2023-07-02T04:45:25;96334.50;;;15.67;75.68
80405;BME280;69733;48.744;9.176;2023-07-02T04:47:51;96326.97;;;15.74;75.53
80405;BME280;69733;48.744;9.176;2023-07-02T04:50:17;96324.56;;;15.77;75.45
80405;BME280;69733;48.744;9.176;2023-07-02T04:52:43;96325.38;;;15.83;75.51
80405;BME280;69733;48.744;9.176;2023-07-02T04:55:11;96329.63;;;15.89;75.06
80405;BME280;69733;48.744;9.176;2023-07-02T04:57:40;96330.59;;;16.18;74.56
80405;BME280;69733;48.744;9.176;2023-07-02T05:00:06;96329.53;;;16.73;73.38
80405;BME280;69733;48.744;9.176;2023-07-02T05:02:33;96332.91;;;16.89;73.24
80405;BME280;69733;48.744;9.176;2023-07-02T05:04:58;96326.19;;;16.86;73.81
80405;BME280;69733;48.744;9.176;2023-07-02T05:07:24;96328.84;;;17.25;73.14
80405;BME280;69733;48.744;9.176;2023-07-02T05:09:49;96338.75;;;18.16;71.06
80405;BME280;69733;48.744;9.176;2023-07-02T05:12:17;96337.97;;;18.58;70.58
80405;BME280;69733;48.744;9.176;2023-07-02T05:14:42;96342.16;;;18.46;71.50
80405;BME280;69733;48.744;9.176;2023-07-02T05:17:07;96350.59;;;18.15;72.67
80405;BME280;69733;48.744;9.176;2023-07-02T05:19:35;96350.03;;;17.95;72.85
80405;BME280;69733;48.744;9.176;2023-07-02T05:22:01;96355.88;;;17.78;73.48
80405;BME280;69733;48.744;9.176;2023-07-02T05:24:26;96361.09;;;17.64;73.78
80405;BME280;69733;48.744;9.176;2023-07-02T05:26:51;96374.59;;;17.54;73.87
80405;BME280;69733;48.744;9.176;2023-07-02T05:29:17;96375.75;;;17.48;74.13
80405;BME280;69733;48.744;9.176;2023-07-02T05:31:42;96371.75;;;17.46;73.93
80405;BME280;69733;48.744;9.176;2023-07-02T05:34:07;96373.31;;;17.47;73.94
80405;BME280;69733;48.744;9.176;2023-07-02T05:36:33;96373.84;;;17.49;73.67
80405;BME280;69733;48.744;9.176;2023-07-02T05:38:59;96374.66;;;17.49;73.41
80405;BME280;69733;48.744;9.176;2023-07-02T05:41:27;96373.88;;;17.43;73.61
80405;BME280;69733;48.744;9.176;2023-07-02T05:44:05;96381.41;;;17.47;73.66
80405;BME280;69733;48.744;9.176;2023-07-02T05:46:30;96380.63;;;17.46;73.72
80405;BME280;69733;48.744;9.176;2023-07-02T05:48:55;96381.97;;;17.43;73.58
80405;BME280;69733;48.744;9.176;2023-07-02T05:51:25;96384.56;;;17.54;73.21
80405;BME280;69733;48.744;9.176;2023-07-02T05:53:51;96377.75;;;18.42;71.41
80405;BME280;69733;48.744;9.176;2023-07-02T05:56:16;96378.50;;;19.60;69.32
80405;BME280;69733;48.744;9.176;2023-07-02T05:58:42;96376.84;;;20.65;67.35
80405;BME280;69733;48.744;9.176;2023-07-02T06:01:07;96386.09;;;21.58;66.08
80405;BME280;69733;48.744;9.176;2023-07-02T06:03:33;96380.16;;;22.40;65.15
80405;BME280;69733;48.744;9.176;2023-07-02T06:05:58;96377.47;;;22.96;64.56
80405;BME280;69733;48.744;9.176;2023-07-02T06:08:24;96380.06;;;23.70;63.05
80405;BME280;69733;48.744;9.176;2023-07-02T06:10:52;96379.13;;;24.21;62.65
80405;BME280;69733;48.744;9.176;2023-07-02T06:13:17;96378.84;;;24.52;62.84
80405;BME280;69733;48.744;9.176;2023-07-02T06:15:43;96383.09;;;24.99;61.95
80405;BME280;69733;48.744;9.176;2023-07-02T06:18:08;96387.97;;;25.56;61.35
80405;BME280;69733;48.744;9.176;2023-07-02T06:20:40;96384.75;;;25.74;60.58
80405;BME280;69733;48.744;9.176;2023-07-02T06:23:05;96391.75;;;26.08;59.98
80405;BME280;69733;48.744;9.176;2023-07-02T06:25:30;96384.84;;;26.11;60.09
80405;BME280;69733;48.744;9.176;2023-07-02T06:27:55;96392.41;;;25.60;60.62
80405;BME280;69733;48.744;9.176;2023-07-02T06:30:23;96386.16;;;25.93;59.55
80405;BME280;69733;48.744;9.176;2023-07-02T06:32:49;96392.41;;;26.26;57.98
80405;BME280;69733;48.744;9.176;2023-07-02T06:35:14;96380.72;;;26.50;56.89
80405;BME280;69733;48.744;9.176;2023-07-02T06:37:39;96388.09;;;26.25;56.61
80405;BME280;69733;48.744;9.176;2023-07-02T06:40:06;96388.63;;;25.53;57.15
80405;BME280;69733;48.744;9.176;2023-07-02T06:42:31;96390.66;;;24.94;57.27
80405;BME280;69733;48.744;9.176;2023-07-02T06:45:00;96395.06;;;24.40;57.04
80405;BME280;69733;48.744;9.176;2023-07-02T06:47:26;96384.56;;;24.30;56.76
80405;BME280;69733;48.744;9.176;2023-07-02T06:49:52;96392.59;;;24.09;56.36
80405;BME280;69733;48.744;9.176;2023-07-02T06:52:18;96394.75;;;23.69;55.85
80405;BME280;69733;48.744;9.176;2023-07-02T06:54:46;96403.06;;;23.29;55.72
80405;BME280;69733;48.744;9.176;2023-07-02T06:57:12;96395.31;;;22.80;56.04
80405;BME280;69733;48.744;9.176;2023-07-02T06:59:38;96402.06;;;22.52;55.61
80405;BME280;69733;48.744;9.176;2023-07-02T07:02:03;96407.88;;;22.67;54.75
80405;BME280;69733;48.744;9.176;2023-07-02T07:04:29;96409.63;;;22.63;54.24
80405;BME280;69733;48.744;9.176;2023-07-02T07:06:54;96408.31;;;22.52;53.91
80405;BME280;69733;48.744;9.176;2023-07-02T07:09:21;96407.59;;;22.69;53.32
80405;BME280;69733;48.744;9.176;2023-07-02T07:11:46;96401.06;;;22.70;52.66
80405;BME280;69733;48.744;9.176;2023-07-02T07:14:12;96406.81;;;22.77;52.23
80405;BME280;69733;48.744;9.176;2023-07-02T07:16:37;96403.34;;;23.02;51.86
80405;BME280;69733;48.744;9.176;2023-07-02T07:19:05;96413.09;;;23.20;51.23
80405;BME280;69733;48.744;9.176;2023-07-02T07:21:32;96405.91;;;23.93;50.12
80405;BME280;69733;48.744;9.176;2023-07-02T07:23:57;96398.00;;;24.26;49.99
80405;BME280;69733;48.744;9.176;2023-07-02T07:26:25;96401.13;;;24.83;49.33
80405;BME280;69733;48.744;9.176;2023-07-02T07:28:51;96405.03;;;24.94;48.40
80405;BME280;69733;48.744;9.176;2023-07-02T07:31:23;96397.69;;;24.95;47.81
80405;BME280;69733;48.744;9.176;2023-07-02T07:33:48;96407.94;;;25.18;47.39
80405;BME280;69733;48.744;9.176;2023-07-02T07:36:13;96407.34;;;25.54;46.80
80405;BME280;69733;48.744;9.176;2023-07-02T07:38:39;96407.56;;;25.29;46.36
80405;BME280;69733;48.744;9.176;2023-07-02T07:41:07;96401.41;;;24.90;46.53
80405;BME280;69733;48.744;9.176;2023-07-02T07:43:33;96409.31;;;24.74;46.18
80405;BME280;69733;48.744;9.176;2023-07-02T07:45:59;96412.53;;;24.68;45.87
80405;BME280;69733;48.744;9.176;2023-07-02T07:48:24;96414.16;;;25.19;45.42
80405;BME280;69733;48.744;9.176;2023-07-02T07:50:49;96403.84;;;25.87;44.37
80405;BME280;69733;48.744;9.176;2023-07-02T07:53:15;96404.47;;;26.61;43.22
80405;BME280;69733;48.744;9.176;2023-07-02T07:55:40;96406.00;;;26.95;42.71
80405;BME280;69733;48.744;9.176;2023-07-02T07:58:05;96401.91;;;27.53;41.75
80405;BME280;69733;48.744;9.176;2023-07-02T08:00:31;96395.94;;;28.19;41.07
80405;BME280;69733;48.744;9.176;2023-07-02T08:02:56;96408.81;;;28.18;40.86
80405;BME280;69733;48.744;9.176;2023-07-02T08:05:24;96401.81;;;27.78;40.54
80405;BME280;69733;48.744;9.176;2023-07-02T08:08:01;96412.19;;;28.00;40.17
80405;BME280;69733;48.744;9.176;2023-07-02T08:10:26;96401.75;;;27.90;39.79
80405;BME280;69733;48.744;9.176;2023-07-02T08:12:52;96410.69;;;27.47;39.74
80405;BME280;69733;48.744;9.176;2023-07-02T08:15:18;96402.06;;;27.73;39.08
80405;BME280;69733;48.744;9.176;2023-07-02T08:17:44;96409.91;;;28.02;38.55
80405;BME280;69733;48.744;9.176;2023-07-02T08:20:10;96398.78;;;28.54;37.86
80405;BME280;69733;48.744;9.176;2023-07-02T08:22:39;96402.69;;;29.35;37.18
80405;BME280;69733;48.744;9.176;2023-07-02T08:25:05;96409.22;;;29.65;36.99
80405;BME280;69733;48.744;9.176;2023-07-02T08:27:31;96408.34;;;29.99;36.08
80405;BME280;69733;48.744;9.176;2023-07-02T08:29:56;96402.56;;;30.46;35.71
80405;BME280;69733;48.744;9.176;2023-07-02T08:32:21;96421.25;;;30.18;35.24
80405;BME280;69733;48.744;9.176;2023-07-02T08:34:47;96415.50;;;29.85;35.27
80405;BME280;69733;48.744;9.176;2023-07-02T08:37:12;96413.97;;;29.68;35.48
80405;BME280;69733;48.744;9.176;2023-07-02T08:39:37;96411.22;;;30.06;34.89
80405;BME280;69733;48.744;9.176;2023-07-02T08:42:05;96417.47;;;30.26;34.22
80405;BME280;69733;48.744;9.176;2023-07-02T08:44:34;96428.66;;;30.37;33.93
80405;BME280;69733;48.744;9.176;2023-07-02T08:47:01;96416.09;;;30.81;33.29
80405;BME280;69733;48.744;9.176;2023-07-02T08:49:29;96411.94;;;31.14;33.07
80405;BME280;69733;48.744;9.176;2023-07-02T08:51:55;96409.88;;;31.37;32.68
80405;BME280;69733;48.744;9.176;2023-07-02T08:54:20;96409.69;;;31.23;32.46
80405;BME280;69733;48.744;9.176;2023-07-02T08:56:46;96408.44;;;30.94;32.05
80405;BME280;69733;48.744;9.176;2023-07-02T08:59:12;96410.03;;;30.46;32.50
80405;BME280;69733;48.744;9.176;2023-07-02T09:01:53;96412.38;;;30.47;32.02
80405;BME280;69733;48.744;9.176;2023-07-02T09:04:23;96409.94;;;30.88;31.52
80405;BME280;69733;48.744;9.176;2023-07-02T09:07:04;96409.13;;;31.40;30.63
80405;BME280;69733;48.744;9.176;2023-07-02T09:09:30;96403.28;;;31.15;30.91
80405;BME280;69733;48.744;9.176;2023-07-02T09:11:55;96418.41;;;31.02;31.05
80405;BME280;69733;48.744;9.176;2023-07-02T09:14:27;96400.88;;;31.40;30.45
80405;BME280;69733;48.744;9.176;2023-07-02T09:17:08;96401.16;;;32.24;29.53
80405;BME280;69733;48.744;9.176;2023-07-02T09:19:35;96406.00;;;32.75;29.61
80405;BME280;69733;48.744;9.176;2023-07-02T09:22:01;96393.81;;;33.34;29.09
80405;BME280;69733;48.744;9.176;2023-07-02T09:24:29;96399.44;;;33.55;28.13
80405;BME280;69733;48.744;9.176;2023-07-02T09:26:56;96399.31;;;33.30;28.10
80405;BME280;69733;48.744;9.176;2023-07-02T09:31:48;96388.50;;;33.08;27.85
80405;BME280;69733;48.744;9.176;2023-07-02T09:34:14;96408.75;;;33.26;27.86
80405;BME280;69733;48.744;9.176;2023-07-02T09:36:42;96408.91;;;33.50;27.42
80405;BME280;69733;48.744;9.176;2023-07-02T09:39:33;96394.22;;;33.32;27.28
80405;BME280;69733;48.744;9.176;2023-07-02T09:41:59;96402.69;;;33.06;27.08
80405;BME280;69733;48.744;9.176;2023-07-02T09:44:29;96402.25;;;33.00;26.69
80405;BME280;69733;48.744;9.176;2023-07-02T09:47:04;96400.28;;;32.97;26.73
80405;BME280;69733;48.744;9.176;2023-07-02T09:49:40;96395.75;;;32.35;26.85
80405;BME280;69733;48.744;9.176;2023-07-02T09:52:08;96398.78;;;31.89;26.65
80405;BME280;69733;48.744;9.176;2023-07-02T09:54:34;96392.56;;;31.96;26.63
80405;BME280;69733;48.744;9.176;2023-07-02T09:57:01;96402.38;;;31.60;26.78
80405;BME280;69733;48.744;9.176;2023-07-02T09:59:27;96392.13;;;31.31;27.28
80405;BME280;69733;48.744;9.176;2023-07-02T10:01:53;96398.25;;;30.94;27.07
80405;BME280;69733;48.744;9.176;2023-07-02T10:04:19;96393.00;;;31.08;27.59
80405;BME280;69733;48.744;9.176;2023-07-02T10:06:46;96394.47;;;31.02;27.64
80405;BME280;69733;48.744;9.176;2023-07-02T10:09:11;96398.66;;;30.70;27.52
80405;BME280;69733;48.744;9.176;2023-07-02T10:11:37;96394.13;;;30.36;27.94
80405;BME280;69733;48.744;9.176;2023-07-02T10:14:02;96390.66;;;30.39;27.63
80405;BME280;69733;48.744;9.176;2023-07-02T10:16:27;96385.25;;;30.91;27.69
80405;BME280;69733;48.744;9.176;2023-07-02T10:18:53;96385.84;;;31.04;27.65
80405;BME280;69733;48.744;9.176;2023-07-02T10:21:22;96387.09;;;30.61;28.21
80405;BME280;69733;48.744;9.176;2023-07-02T10:23:48;96392.44;;;30.08;28.42
80405;BME280;69733;48.744;9.176;2023-07-02T10:26:18;96392.09;;;29.72;28.58
80405;BME280;69733;48.744;9.176;2023-07-02T10:28:58;96395.25;;;29.74;29.04
80405;BME280;69733;48.744;9.176;2023-07-02T10:31:24;96388.31;;;29.80;28.76
80405;BME280;69733;48.744;9.176;2023-07-02T10:33:49;96398.25;;;29.84;28.28
80405;BME280;69733;48.744;9.176;2023-07-02T10:36:21;96391.50;;;29.82;28.84
80405;BME280;69733;48.744;9.176;2023-07-02T10:38:48;96397.66;;;29.75;28.44
80405;BME280;69733;48.744;9.176;2023-07-02T10:41:24;96393.66;;;29.73;28.82
80405;BME280;69733;48.744;9.176;2023-07-02T10:43:49;96378.50;;;29.59;28.68
80405;BME280;69733;48.744;9.176;2023-07-02T10:46:19;96393.91;;;29.64;29.09
80405;BME280;69733;48.744;9.176;2023-07-02T10:48:54;96391.50;;;29.43;29.12
80405;BME280;69733;48.744;9.176;2023-07-02T10:51:21;96395.47;;;29.46;29.07
80405;BME280;69733;48.744;9.176;2023-07-02T10:54:09;96385.88;;;29.55;29.05
80405;BME280;69733;48.744;9.176;2023-07-02T10:56:35;96386.69;;;29.37;28.94
80405;BME280;69733;48.744;9.176;2023-07-02T10:59:00;96382.72;;;29.19;28.98
80405;BME280;69733;48.744;9.176;2023-07-02T11:01:31;96388.78;;;28.93;29.24
80405;BME280;69733;48.744;9.176;2023-07-02T11:04:00;96392.09;;;28.67;29.54
80405;BME280;69733;48.744;9.176;2023-07-02T11:06:27;96400.28;;;28.51;29.58
80405;BME280;69733;48.744;9.176;2023-07-02T11:08:53;96405.41;;;28.53;29.76
80405;BME280;69733;48.744;9.176;2023-07-02T11:11:20;96388.81;;;28.61;29.75
80405;BME280;69733;48.744;9.176;2023-07-02T11:13:48;96394.00;;;28.66;29.89
80405;BME280;69733;48.744;9.176;2023-07-02T11:18:43;96383.94;;;28.39;29.92
80405;BME280;69733;48.744;9.176;2023-07-02T11:21:11;96397.19;;;28.37;29.90
80405;BME280;69733;48.744;9.176;2023-07-02T11:23:37;96392.50;;;28.38;29.81
80405;BME280;69733;48.744;9.176;2023-07-02T11:26:02;96394.09;;;28.39;29.48
80405;BME280;69733;48.744;9.176;2023-07-02T11:28:30;96393.66;;;28.52;29.54
80405;BME280;69733;48.744;9.176;2023-07-02T11:31:02;96381.81;;;28.64;29.39
80405;BME280;69733;48.744;9.176;2023-07-02T11:33:39;96373.44;;;28.73;29.35
80405;BME280;69733;48.744;9.176;2023-07-02T11:36:05;96386.41;;;28.60;29.26
80405;BME280;69733;48.744;9.176;2023-07-02T11:38:32;96376.38;;;28.48;29.45
80405;BME280;69733;48.744;9.176;2023-07-02T11:40:58;96376.41;;;28.21;29.61
80405;BME280;69733;48.744;9.176;2023-07-02T11:43:25;96378.06;;;28.09;29.71
80405;BME280;69733;48.744;9.176;2023-07-02T11:45:51;96377.19;;;27.78;29.95
80405;BME280;69733;48.744;9.176;2023-07-02T11:48:16;96374.66;;;27.57;29.99
80405;BME280;69733;48.744;9.176;2023-07-02T11:50:41;96366.94;;;27.59;29.86
80405;BME280;69733;48.744;9.176;2023-07-02T11:53:07;96373.22;;;27.47;30.11
80405;BME280;69733;48.744;9.176;2023-07-02T11:55:32;96368.13;;;27.34;29.90
80405;BME280;69733;48.744;9.176;2023-07-02T11:57:57;96363.16;;;27.24;30.07
80405;BME280;69733;48.744;9.176;2023-07-02T12:00:23;96370.28;;;27.28;30.32
80405;BME280;69733;48.744;9.176;2023-07-02T12:02:48;96365.22;;;27.54;30.31
80405;BME280;69733;48.744;9.176;2023-07-02T12:05:14;96364.28;;;27.62;29.97
80405;BME280;69733;48.744;9.176;2023-07-02T12:07:39;96358.22;;;27.69;30.07
80405;BME280;69733;48.744;9.176;2023-07-02T12:10:06;96365.13;;;27.51;29.95
80405;BME280;69733;48.744;9.176;2023-07-02T12:12:32;96361.41;;;27.31;30.12
80405;BME280;69733;48.744;9.176;2023-07-02T12:14:57;96354.88;;;27.36;30.14
80405;BME280;69733;48.744;9.176;2023-07-02T12:17:22;96367.06;;;27.50;30.16
80405;BME280;69733;48.744;9.176;2023-07-02T12:19:48;96361.38;;;27.43;30.48
80405;BME280;69733;48.744;9.176;2023-07-02T12:22:13;96360.94;;;27.29;30.42
80405;BME280;69733;48.744;9.176;2023-07-02T12:24:41;96357.69;;;27.11;30.68
80405;BME280;69733;48.744;9.176;2023-07-02T12:27:10;96368.56;;;26.96;30.40
80405;BME280;69733;48.744;9.176;2023-07-02T12:29:37;96361.25;;;26.76;30.75
80405;BME280;69733;48.744;9.176;2023-07-02T12:32:03;96360.38;;;26.84;30.32
80405;BME280;69733;48.744;9.176;2023-07-02T12:34:28;96360.25;;;26.92;30.55
80405;BME280;69733;48.744;9.176;2023-07-02T12:36:54;96357.31;;;26.85;30.86
80405;BME280;69733;48.744;9.176;2023-07-02T12:39:20;96355.09;;;26.79;30.81
80405;BME280;69733;48.744;9.176;2023-07-02T12:41:45;96361.13;;;26.72;30.35
80405;BME280;69733;48.744;9.176;2023-07-02T12:44:10;96349.78;;;26.70;30.55
80405;BME280;69733;48.744;9.176;2023-07-02T12:46:36;96358.06;;;26.61;30.49
80405;BME280;69733;48.744;9.176;2023-07-02T12:49:04;96359.78;;;26.42;30.73
80405;BME280;69733;48.744;9.176;2023-07-02T12:51:29;96363.75;;;26.20;30.88
80405;BME280;69733;48.744;9.176;2023-07-02T12:53:55;96357.09;;;26.09;31.05
80405;BME280;69733;48.744;9.176;2023-07-02T12:56:20;96358.78;;;26.01;31.20
80405;BME280;69733;48.744;9.176;2023-07-02T12:58:45;96363.31;;;25.97;31.37
80405;BME280;69733;48.744;9.176;2023-07-02T13:01:11;96347.31;;;25.96;31.28